Time;durP1;ratioP1;P1;durP2;ratioP2;P2;SDS_P1;SDS_P2;PMS_P1;PMS_P2;Temp;Humidity;BMP_temperature;BMP_pressure;BME280_temperature;BME280_humidity;BME280_pressure;Samples;Min_cycle;Max_cycle;Signal;HPM_P1;HPM_P2
2023/05/10 00:00:09;;;;;;;;;;;19.40;34.70;;;;;;5072352;28;19973;-56
2023/05/10 00:02:36;;;;;;;;;;;19.40;34.70;;;;;;5089178;28;19919;-58
2023/05/10 00:05:05;;;;;;;;;;;19.40;34.80;;;;;;5086745;28;19932;-57
2023/05/10 00:07:31;;;;;;;;;;;19.40;34.80;;;;;;5087315;28;19920;-57
2023/05/10 00:09:58;;;;;;;;;;;19.50;34.90;;;;;;5094854;28;19936;-57
2023/05/10 00:12:25;;;;;;;;;;;19.40;34.90;;;;;;5071244;28;19969;-57
2023/05/10 00:14:52;;;;;;;;;;;19.40;34.90;;;;;;5087818;28;20001;-58
2023/05/10 00:17:18;;;;;;;;;;;19.40;35.00;;;;;;5072021;28;20339;-56
2023/05/10 00:19:45;;;;;;;;;;;19.40;35.00;;;;;;5072215;28;19920;-58
2023/05/10 00:22:14;;;;;;;;;;;19.40;35.00;;;;;;5071365;28;19920;-57
2023/05/10 00:24:40;;;;;;;;;;;19.40;35.10;;;;;;5070809;28;19920;-58
2023/05/10 00:27:07;;;;;;;;;;;19.40;35.10;;;;;;5072165;28;19924;-58
2023/05/10 00:29:34;;;;;;;;;;;19.40;35.10;;;;;;5070787;28;19920;-58
2023/05/10 00:32:00;;;;;;;;;;;19.40;35.10;;;;;;5086387;28;19928;-57
2023/05/10 00:34:27;;;;;;;;;;;19.40;35.20;;;;;;5088238;28;19919;-57
2023/05/10 00:36:54;;;;;;;;;;;19.40;35.20;;;;;;5072414;28;19981;-58
2023/05/10 00:39:22;;;;;;;;;;;19.40;35.30;;;;;;5087968;28;19920;-57
2023/05/10 00:41:49;;;;;;;;;;;19.40;35.30;;;;;;5070961;28;19973;-57
2023/05/10 00:44:15;;;;;;;;;;;19.40;35.40;;;;;;5071776;28;19920;-58
2023/05/10 00:46:42;;;;;;;;;;;19.40;35.40;;;;;;5071120;28;19924;-57
2023/05/10 00:49:09;;;;;;;;;;;19.40;35.40;;;;;;5087683;28;20347;-58
2023/05/10 00:51:36;;;;;;;;;;;19.40;35.40;;;;;;5087622;28;20300;-57
2023/05/10 00:54:03;;;;;;;;;;;19.40;35.40;;;;;;5071483;28;19946;-57
2023/05/10 00:56:31;;;;;;;;;;;19.40;35.50;;;;;;5071441;28;19951;-57
2023/05/10 00:58:57;;;;;;;;;;;19.40;35.50;;;;;;5068492;28;19924;-57
2023/05/10 01:01:24;;;;;;;;;;;19.40;35.50;;;;;;5070448;28;19943;-57
2023/05/10 01:03:52;;;;;;;;;;;19.40;35.50;;;;;;5071247;28;19931;-57
2023/05/10 01:06:18;;;;;;;;;;;19.40;35.60;;;;;;5071369;28;19931;-58
2023/05/10 01:08:45;;;;;;;;;;;19.30;35.50;;;;;;5068857;28;20235;-58
2023/05/10 01:11:12;;;;;;;;;;;19.30;35.50;;;;;;5070430;28;19920;-57
2023/05/10 01:13:42;;;;;;;;;;;19.30;35.50;;;;;;5089598;28;19940;-58
2023/05/10 01:16:08;;;;;;;;;;;19.30;35.60;;;;;;5069295;28;19932;-58
2023/05/10 01:18:35;;;;;;;;;;;19.30;35.60;;;;;;5090788;28;19919;-58
2023/05/10 01:21:06;;;;;;;;;;;19.30;35.60;;;;;;5085234;28;19920;-57
2023/05/10 01:23:37;;;;;;;;;;;19.30;35.70;;;;;;5070839;28;19935;-57
2023/05/10 01:26:27;;;;;;;;;;;19.30;35.70;;;;;;5085487;28;19981;-57
2023/05/10 01:29:12;;;;;;;;;;;19.30;36.30;;;;;;5070990;28;19967;-58
2023/05/10 01:31:58;;;;;;;;;;;19.30;35.70;;;;;;5069813;28;19923;-57
2023/05/10 01:34:26;;;;;;;;;;;19.30;35.70;;;;;;5080409;28;19923;-58
2023/05/10 01:36:54;;;;;;;;;;;19.30;35.80;;;;;;5071593;28;20431;-58
2023/05/10 01:39:22;;;;;;;;;;;19.30;36.40;;;;;;5071844;28;19924;-58
2023/05/10 01:41:49;;;;;;;;;;;19.30;35.80;;;;;;5069090;28;19935;-58
2023/05/10 01:44:18;;;;;;;;;;;19.30;35.80;;;;;;5087445;28;19931;-57
2023/05/10 01:46:45;;;;;;;;;;;19.30;35.80;;;;;;5068602;28;19920;-56
2023/05/10 01:49:15;;;;;;;;;;;19.30;35.90;;;;;;5071145;28;19920;-57
2023/05/10 01:51:46;;;;;;;;;;;19.30;35.90;;;;;;5088004;28;19924;-57
2023/05/10 01:54:13;;;;;;;;;;;19.20;36.00;;;;;;5071127;28;19920;-57
2023/05/10 01:56:42;;;;;;;;;;;19.20;36.00;;;;;;5070168;28;19919;-58
2023/05/10 01:59:10;;;;;;;;;;;19.30;36.10;;;;;;5088349;28;20370;-58
2023/05/10 02:01:36;;;;;;;;;;;19.20;36.10;;;;;;5085551;28;19926;-57
2023/05/10 02:04:03;;;;;;;;;;;19.20;36.10;;;;;;5085332;28;19920;-58
2023/05/10 02:06:30;;;;;;;;;;;19.20;36.10;;;;;;5068708;28;19977;-58
2023/05/10 02:08:58;;;;;;;;;;;19.20;36.20;;;;;;5086999;28;20014;-56
2023/05/10 02:11:25;;;;;;;;;;;19.20;36.20;;;;;;5086655;28;19924;-57
2023/05/10 02:13:52;;;;;;;;;;;19.20;36.20;;;;;;5088199;28;19924;-57
2023/05/10 02:16:18;;;;;;;;;;;19.20;36.30;;;;;;5087735;28;19993;-56
2023/05/10 02:18:45;;;;;;;;;;;19.20;36.30;;;;;;5089117;28;19931;-56
2023/05/10 02:21:12;;;;;;;;;;;19.20;36.30;;;;;;5070388;28;19924;-57
2023/05/10 02:23:39;;;;;;;;;;;19.20;36.40;;;;;;5092020;28;19932;-56
2023/05/10 02:26:07;;;;;;;;;;;19.20;36.40;;;;;;5088612;28;19924;-57
2023/05/10 02:28:34;;;;;;;;;;;19.20;36.50;;;;;;5071708;28;19924;-57
2023/05/10 02:31:01;;;;;;;;;;;19.20;36.50;;;;;;5088473;28;19939;-56
2023/05/10 02:33:28;;;;;;;;;;;19.20;36.50;;;;;;5089953;28;20189;-56
2023/05/10 02:35:54;;;;;;;;;;;19.20;36.50;;;;;;5091321;28;19920;-57
2023/05/10 02:38:21;;;;;;;;;;;19.20;36.60;;;;;;5092836;28;19928;-57
2023/05/10 02:40:48;;;;;;;;;;;19.20;36.60;;;;;;5090881;28;19920;-56
2023/05/10 02:43:17;;;;;;;;;;;19.20;36.60;;;;;;5074505;28;19924;-58
2023/05/10 02:45:44;;;;;;;;;;;19.20;36.60;;;;;;5092131;28;19924;-58
2023/05/10 02:48:10;;;;;;;;;;;19.10;36.50;;;;;;5090904;28;19931;-57
2023/05/10 02:50:37;;;;;;;;;;;19.20;36.60;;;;;;5073141;28;20336;-57
2023/05/10 02:53:04;;;;;;;;;;;19.20;36.60;;;;;;5090157;28;19920;-57
2023/05/10 02:55:33;;;;;;;;;;;19.10;36.60;;;;;;5090067;28;19924;-57
2023/05/10 02:58:00;;;;;;;;;;;19.10;36.60;;;;;;5088939;28;20290;-57
2023/05/10 03:00:28;;;;;;;;;;;19.20;36.70;;;;;;5091462;28;19920;-57
2023/05/10 03:02:55;;;;;;;;;;;19.10;36.60;;;;;;5073416;28;20423;-55
2023/05/10 03:05:22;;;;;;;;;;;19.10;36.60;;;;;;5074252;28;20275;-56
2023/05/10 03:07:49;;;;;;;;;;;19.10;36.60;;;;;;5092250;28;19943;-57
2023/05/10 03:10:15;;;;;;;;;;;19.10;36.70;;;;;;5085984;28;19924;-56
2023/05/10 03:12:47;;;;;;;;;;;19.10;36.70;;;;;;5085794;28;19924;-57
2023/05/10 03:15:15;;;;;;;;;;;19.10;36.70;;;;;;5094985;28;19928;-57
2023/05/10 03:17:45;;;;;;;;;;;19.10;36.70;;;;;;5076285;28;19926;-57
2023/05/10 03:20:12;;;;;;;;;;;19.20;36.80;;;;;;5071646;28;19981;-57
2023/05/10 03:22:39;;;;;;;;;;;19.10;36.80;;;;;;5074978;28;19920;-57
2023/05/10 03:25:06;;;;;;;;;;;19.10;36.80;;;;;;5090775;28;19978;-58
2023/05/10 03:27:33;;;;;;;;;;;19.20;36.90;;;;;;5085930;28;19973;-57
2023/05/10 03:30:00;;;;;;;;;;;19.10;36.80;;;;;;5075865;28;19920;-57
2023/05/10 03:32:27;;;;;;;;;;;19.10;36.90;;;;;;5085978;28;19924;-58
2023/05/10 03:34:55;;;;;;;;;;;19.10;36.90;;;;;;5091538;28;19950;-58
2023/05/10 03:37:22;;;;;;;;;;;19.10;36.90;;;;;;5073114;28;19946;-58
2023/05/10 03:39:49;;;;;;;;;;;19.10;36.90;;;;;;5073135;28;19920;-58
2023/05/10 03:42:17;;;;;;;;;;;19.10;37.00;;;;;;5087735;28;19921;-57
2023/05/10 03:44:44;;;;;;;;;;;19.10;37.00;;;;;;5073179;28;19975;-57
2023/05/10 03:47:11;;;;;;;;;;;19.10;37.00;;;;;;5071516;28;19931;-57
2023/05/10 03:49:37;;;;;;;;;;;19.10;37.00;;;;;;5074830;28;19924;-58
2023/05/10 03:52:06;;;;;;;;;;;19.10;37.00;;;;;;5071033;28;19924;-57
2023/05/10 03:54:33;;;;;;;;;;;19.10;37.10;;;;;;5072514;28;19924;-57
2023/05/10 03:57:00;;;;;;;;;;;19.10;37.10;;;;;;5090282;28;20346;-58
2023/05/10 03:59:27;;;;;;;;;;;19.10;37.10;;;;;;5071734;28;19977;-57
2023/05/10 04:01:54;;;;;;;;;;;19.10;37.50;;;;;;5091188;28;19946;-57
2023/05/10 04:04:21;;;;;;;;;;;19.00;37.00;;;;;;5072647;28;19935;-57
2023/05/10 04:06:48;;;;;;;;;;;19.00;37.10;;;;;;5089112;28;19920;-58
2023/05/10 04:09:17;;;;;;;;;;;19.00;37.10;;;;;;5087591;28;19927;-58
2023/05/10 04:11:43;;;;;;;;;;;19.10;37.20;;;;;;5083338;28;19991;-58
2023/05/10 04:14:10;;;;;;;;;;;19.00;37.10;;;;;;5091172;28;19920;-57
2023/05/10 04:16:37;;;;;;;;;;;19.10;37.30;;;;;;5071951;28;19920;-58
2023/05/10 04:19:04;;;;;;;;;;;19.00;37.20;;;;;;5089293;28;19981;-58
2023/05/10 04:21:31;;;;;;;;;;;19.00;37.20;;;;;;5087859;28;20007;-57
2023/05/10 04:23:57;;;;;;;;;;;19.00;37.20;;;;;;5074214;28;20007;-58
2023/05/10 04:26:26;;;;;;;;;;;19.00;37.20;;;;;;5089384;28;20158;-57
2023/05/10 04:28:53;;;;;;;;;;;19.00;37.20;;;;;;5090404;28;19926;-58
2023/05/10 04:31:20;;;;;;;;;;;19.00;37.30;;;;;;5071172;28;19923;-58
2023/05/10 04:33:47;;;;;;;;;;;19.00;37.30;;;;;;5072057;28;20063;-57
2023/05/10 04:36:17;;;;;;;;;;;19.00;37.40;;;;;;5070208;28;19977;-57
2023/05/10 04:38:43;;;;;;;;;;;18.90;37.30;;;;;;5069444;28;19920;-57
2023/05/10 04:41:11;;;;;;;;;;;18.90;37.30;;;;;;5071550;28;20000;-56
2023/05/10 04:43:42;;;;;;;;;;;18.90;37.30;;;;;;5088761;28;19928;-57
2023/05/10 04:46:09;;;;;;;;;;;18.90;37.30;;;;;;5071130;28;19927;-57
2023/05/10 04:48:36;;;;;;;;;;;18.90;37.30;;;;;;5070997;28;19920;-57
2023/05/10 04:51:03;;;;;;;;;;;18.90;37.40;;;;;;5071045;28;19920;-57
2023/05/10 04:53:30;;;;;;;;;;;19.00;37.40;;;;;;5071676;28;19935;-57
2023/05/10 04:55:57;;;;;;;;;;;18.90;37.40;;;;;;5071598;28;19924;-58
2023/05/10 04:58:23;;;;;;;;;;;18.90;37.50;;;;;;5086717;28;19924;-57
2023/05/10 05:00:52;;;;;;;;;;;18.90;37.40;;;;;;5069122;28;19931;-57
2023/05/10 05:03:18;;;;;;;;;;;18.90;37.50;;;;;;5089182;28;19920;-57
2023/05/10 05:05:45;;;;;;;;;;;18.90;37.50;;;;;;5071881;28;19978;-58
2023/05/10 05:08:12;;;;;;;;;;;18.90;37.50;;;;;;5088991;28;19939;-58
2023/05/10 05:10:39;;;;;;;;;;;18.90;37.60;;;;;;5090479;28;19940;-57
2023/05/10 05:13:06;;;;;;;;;;;18.90;37.60;;;;;;5076286;28;19924;-57
2023/05/10 05:15:32;;;;;;;;;;;18.90;37.60;;;;;;5072346;28;20017;-58
2023/05/10 05:18:01;;;;;;;;;;;18.90;37.60;;;;;;5087646;28;19924;-56
2023/05/10 05:20:28;;;;;;;;;;;18.90;37.50;;;;;;5088041;28;19969;-57
2023/05/10 05:22:54;;;;;;;;;;;18.90;37.60;;;;;;5071129;28;19924;-57
2023/05/10 05:25:24;;;;;;;;;;;19.00;37.70;;;;;;5087493;28;19982;-57
2023/05/10 05:27:51;;;;;;;;;;;18.90;37.60;;;;;;5087390;28;19920;-57
2023/05/10 05:30:17;;;;;;;;;;;19.00;37.60;;;;;;5071427;28;19920;-58
2023/05/10 05:32:44;;;;;;;;;;;19.00;37.70;;;;;;5084730;28;19924;-57
2023/05/10 05:35:13;;;;;;;;;;;19.00;37.70;;;;;;5078487;28;19921;-57
2023/05/10 05:37:39;;;;;;;;;;;19.00;37.80;;;;;;5086503;28;20286;-57
2023/05/10 05:40:07;;;;;;;;;;;18.90;37.70;;;;;;5071336;28;19920;-58
2023/05/10 05:42:34;;;;;;;;;;;19.00;37.90;;;;;;5084305;28;19999;-58
2023/05/10 05:45:00;;;;;;;;;;;19.00;37.90;;;;;;5089813;28;19985;-57
2023/05/10 05:47:27;;;;;;;;;;;18.90;37.80;;;;;;5087980;28;19959;-58
2023/05/10 05:49:55;;;;;;;;;;;18.90;37.90;;;;;;5088744;28;19931;-57
2023/05/10 05:52:23;;;;;;;;;;;19.00;38.00;;;;;;5086656;28;19959;-57
2023/05/10 05:54:50;;;;;;;;;;;19.00;38.00;;;;;;5088566;28;19924;-56
2023/05/10 05:57:16;;;;;;;;;;;18.90;37.90;;;;;;5083226;28;19927;-57
2023/05/10 05:59:43;;;;;;;;;;;18.90;37.90;;;;;;5087971;28;19963;-57
2023/05/10 06:02:10;;;;;;;;;;;18.90;37.90;;;;;;5069803;28;19928;-57
2023/05/10 06:04:37;;;;;;;;;;;18.90;37.90;;;;;;5096825;28;19973;-57
2023/05/10 06:07:06;;;;;;;;;;;19.00;38.00;;;;;;5071788;28;19920;-55
2023/05/10 06:09:34;;;;;;;;;;;19.00;38.00;;;;;;5069539;28;19923;-57
2023/05/10 06:12:01;;;;;;;;;;;19.00;38.00;;;;;;5073975;28;19950;-57
2023/05/10 06:14:28;;;;;;;;;;;19.00;38.00;;;;;;5074252;28;20012;-57
2023/05/10 06:16:55;;;;;;;;;;;19.00;38.00;;;;;;5091194;28;19920;-57
2023/05/10 06:19:24;;;;;;;;;;;19.00;38.00;;;;;;5074595;28;19934;-57
2023/05/10 06:21:51;;;;;;;;;;;19.00;38.00;;;;;;5073010;28;20002;-57
2023/05/10 06:24:17;;;;;;;;;;;19.00;38.00;;;;;;5089440;28;19920;-57
2023/05/10 06:26:46;;;;;;;;;;;19.00;38.10;;;;;;5079922;28;19927;-57
2023/05/10 06:29:12;;;;;;;;;;;19.00;38.00;;;;;;5077525;28;19946;-57
2023/05/10 06:31:39;;;;;;;;;;;19.10;38.10;;;;;;5085420;28;19928;-56
2023/05/10 06:34:07;;;;;;;;;;;19.00;38.00;;;;;;5093271;28;19920;-57
2023/05/10 06:36:34;;;;;;;;;;;19.00;38.00;;;;;;5095809;28;19977;-56
2023/05/10 06:39:01;;;;;;;;;;;19.00;38.00;;;;;;5074911;28;20223;-57
2023/05/10 06:41:27;;;;;;;;;;;19.10;38.00;;;;;;5076288;28;19920;-57
2023/05/10 06:43:56;;;;;;;;;;;19.10;38.00;;;;;;5091528;28;19962;-58
2023/05/10 06:46:22;;;;;;;;;;;19.10;38.00;;;;;;5069838;28;19981;-56
2023/05/10 06:48:49;;;;;;;;;;;19.10;38.00;;;;;;5076280;28;19924;-57
2023/05/10 06:51:17;;;;;;;;;;;19.10;38.10;;;;;;5060461;28;19926;-56
2023/05/10 06:53:44;;;;;;;;;;;19.10;38.10;;;;;;5078994;28;19957;-57
2023/05/10 06:56:10;;;;;;;;;;;19.10;38.20;;;;;;5073559;28;19924;-58
2023/05/10 06:58:37;;;;;;;;;;;19.10;38.40;;;;;;5088390;28;20355;-58
2023/05/10 07:01:06;;;;;;;;;;;19.10;38.40;;;;;;5083951;28;20021;-57
2023/05/10 07:03:32;;;;;;;;;;;19.10;38.40;;;;;;5087897;28;19993;-57
2023/05/10 07:06:04;;;;;;;;;;;19.10;38.50;;;;;;5071725;28;19923;-58
2023/05/10 07:08:31;;;;;;;;;;;19.10;38.40;;;;;;5069356;28;19928;-58
2023/05/10 07:11:00;;;;;;;;;;;19.10;38.50;;;;;;5074910;28;19932;-56
2023/05/10 07:13:27;;;;;;;;;;;19.10;38.50;;;;;;5081053;28;19954;-58
2023/05/10 07:15:54;;;;;;;;;;;19.10;38.40;;;;;;5087090;28;19939;-58
2023/05/10 07:18:22;;;;;;;;;;;19.10;38.40;;;;;;5074125;28;19936;-58
2023/05/10 07:20:48;;;;;;;;;;;19.10;38.40;;;;;;5059172;28;19998;-58
2023/05/10 07:23:15;;;;;;;;;;;19.10;38.30;;;;;;5086861;28;19927;-59
2023/05/10 07:25:42;;;;;;;;;;;19.20;38.40;;;;;;5072423;28;19932;-58
2023/05/10 07:28:08;;;;;;;;;;;19.20;38.40;;;;;;5071760;28;19928;-57
2023/05/10 07:30:35;;;;;;;;;;;19.20;38.40;;;;;;5072979;28;20001;-57
2023/05/10 07:33:02;;;;;;;;;;;19.20;38.40;;;;;;5086800;28;20249;-57
2023/05/10 07:35:30;;;;;;;;;;;19.30;38.50;;;;;;5072453;28;19932;-57
2023/05/10 07:37:57;;;;;;;;;;;19.30;38.50;;;;;;5065968;28;19927;-57
2023/05/10 07:40:24;;;;;;;;;;;19.30;39.00;;;;;;5088474;28;19924;-57
2023/05/10 07:42:51;;;;;;;;;;;19.30;38.40;;;;;;5090715;28;19924;-57
2023/05/10 07:45:17;;;;;;;;;;;19.30;38.40;;;;;;5071667;28;19956;-57
2023/05/10 07:47:44;;;;;;;;;;;19.30;38.40;;;;;;5070779;28;20011;-58
2023/05/10 07:50:11;;;;;;;;;;;19.30;38.40;;;;;;5088644;28;19920;-57
2023/05/10 07:52:39;;;;;;;;;;;19.40;38.40;;;;;;5086042;28;19920;-57
2023/05/10 07:55:07;;;;;;;;;;;19.40;38.40;;;;;;5069846;28;19920;-57
2023/05/10 07:57:34;;;;;;;;;;;19.40;38.50;;;;;;5088152;28;19920;-56
2023/05/10 08:00:01;;;;;;;;;;;19.40;38.50;;;;;;5085999;28;20007;-57
2023/05/10 08:02:27;;;;;;;;;;;19.40;38.50;;;;;;5091333;28;19978;-57
2023/05/10 08:04:55;;;;;;;;;;;19.40;38.50;;;;;;5088768;28;19928;-57
2023/05/10 08:07:22;;;;;;;;;;;19.40;38.60;;;;;;5070695;28;20031;-57
2023/05/10 08:09:50;;;;;;;;;;;19.40;39.20;;;;;;5088504;28;19927;-58
2023/05/10 08:12:17;;;;;;;;;;;19.40;38.60;;;;;;5088296;28;20354;-58
2023/05/10 08:14:44;;;;;;;;;;;19.50;38.70;;;;;;5072121;28;20324;-58
2023/05/10 08:17:11;;;;;;;;;;;19.50;38.70;;;;;;5070077;28;19932;-58
2023/05/10 08:19:40;;;;;;;;;;;19.50;38.70;;;;;;5084141;28;19971;-57
2023/05/10 08:22:07;;;;;;;;;;;19.50;38.70;;;;;;5081414;28;19927;-58
2023/05/10 08:24:38;;;;;;;;;;;19.50;38.70;;;;;;5088573;28;19980;-58
2023/05/10 08:27:06;;;;;;;;;;;19.50;38.70;;;;;;5071134;28;19984;-58
2023/05/10 08:29:33;;;;;;;;;;;19.60;38.90;;;;;;5072652;28;19965;-58
2023/05/10 08:32:00;;;;;;;;;;;19.60;38.90;;;;;;5085395;28;19924;-58
2023/05/10 08:34:27;;;;;;;;;;;19.60;38.90;;;;;;5086391;28;19932;-58
2023/05/10 08:36:54;;;;;;;;;;;19.60;39.00;;;;;;5088079;28;19920;-58
2023/05/10 08:39:20;;;;;;;;;;;19.60;38.90;;;;;;5089270;28;19923;-58
2023/05/10 08:41:47;;;;;;;;;;;19.60;39.00;;;;;;5087504;28;20408;-57
2023/05/10 08:44:16;;;;;;;;;;;19.60;39.00;;;;;;5087215;28;20234;-56
2023/05/10 08:46:43;;;;;;;;;;;19.60;39.00;;;;;;5073519;28;19919;-56
2023/05/10 08:49:10;;;;;;;;;;;19.60;39.10;;;;;;5088477;28;19924;-56
2023/05/10 08:51:37;;;;;;;;;;;19.70;39.20;;;;;;5068188;28;20336;-57
2023/05/10 08:54:05;;;;;;;;;;;19.70;39.20;;;;;;5072604;28;19969;-57
2023/05/10 08:56:32;;;;;;;;;;;19.70;39.20;;;;;;5085771;28;19932;-58
2023/05/10 08:58:58;;;;;;;;;;;19.70;39.20;;;;;;5071963;28;19935;-59
2023/05/10 09:01:26;;;;;;;;;;;19.70;39.20;;;;;;5087282;28;20374;-56
2023/05/10 09:03:53;;;;;;;;;;;19.70;39.30;;;;;;5070522;28;19935;-58
2023/05/10 09:06:20;;;;;;;;;;;19.70;39.30;;;;;;5087688;28;19924;-59
2023/05/10 09:08:47;;;;;;;;;;;19.80;39.40;;;;;;5072374;28;19920;-58
2023/05/10 09:11:14;;;;;;;;;;;19.80;39.50;;;;;;5069819;28;19920;-57
2023/05/10 09:13:40;;;;;;;;;;;19.80;39.50;;;;;;5072918;28;19924;-58
2023/05/10 09:16:07;;;;;;;;;;;19.80;39.50;;;;;;5072032;28;19973;-59
2023/05/10 09:18:35;;;;;;;;;;;19.80;39.50;;;;;;5086487;28;19942;-58
2023/05/10 09:21:02;;;;;;;;;;;19.80;39.50;;;;;;5070710;28;19924;-58
2023/05/10 09:23:32;;;;;;;;;;;19.80;39.50;;;;;;5088066;28;19948;-58
2023/05/10 09:26:05;;;;;;;;;;;19.80;39.50;;;;;;5085810;28;19932;-58
2023/05/10 09:28:32;;;;;;;;;;;19.90;39.60;;;;;;5068260;28;19961;-59
2023/05/10 09:30:59;;;;;;;;;;;19.90;39.60;;;;;;5084995;28;19932;-60
2023/05/10 09:33:26;;;;;;;;;;;19.90;39.60;;;;;;5087369;28;19926;-58
2023/05/10 09:35:54;;;;;;;;;;;19.90;39.70;;;;;;5069298;28;20571;-59
2023/05/10 09:38:22;;;;;;;;;;;19.90;39.70;;;;;;5066896;28;19987;-58
2023/05/10 09:40:54;;;;;;;;;;;19.90;39.70;;;;;;5071110;28;19924;-58
2023/05/10 09:43:20;;;;;;;;;;;19.80;39.70;;;;;;5084494;28;20416;-58
2023/05/10 09:45:48;;;;;;;;;;;19.90;39.70;;;;;;5070435;28;19996;-58
2023/05/10 09:48:15;;;;;;;;;;;19.90;39.70;;;;;;5089371;28;19934;-59
2023/05/10 09:50:42;;;;;;;;;;;19.90;39.80;;;;;;5078086;28;19976;-59
2023/05/10 09:53:10;;;;;;;;;;;19.90;39.80;;;;;;5075232;28;19924;-58
2023/05/10 09:55:41;;;;;;;;;;;19.90;40.00;;;;;;5071685;28;19932;-58
2023/05/10 09:58:10;;;;;;;;;;;19.90;40.00;;;;;;5087225;28;19932;-58
2023/05/10 10:00:37;;;;;;;;;;;19.90;40.10;;;;;;5090159;28;19936;-57
2023/05/10 10:03:04;;;;;;;;;;;19.90;40.00;;;;;;5090214;28;20018;-57
2023/05/10 10:05:31;;;;;;;;;;;20.00;40.20;;;;;;5094625;28;19963;-57
2023/05/10 10:07:57;;;;;;;;;;;20.00;40.20;;;;;;5091749;28;19943;-57
2023/05/10 10:10:26;;;;;;;;;;;19.90;40.10;;;;;;5071006;28;19927;-57
2023/05/10 10:12:53;;;;;;;;;;;20.00;40.20;;;;;;5089311;28;19920;-57
2023/05/10 10:15:20;;;;;;;;;;;19.90;40.20;;;;;;5070985;28;20294;-57
2023/05/10 10:17:47;;;;;;;;;;;19.90;40.10;;;;;;5091635;28;19927;-58
2023/05/10 10:20:13;;;;;;;;;;;20.00;40.20;;;;;;5089912;28;20023;-58
2023/05/10 10:22:40;;;;;;;;;;;20.00;40.20;;;;;;5073471;28;19920;-58
2023/05/10 10:25:08;;;;;;;;;;;20.00;40.40;;;;;;5090731;28;19920;-58
2023/05/10 10:27:40;;;;;;;;;;;20.00;40.40;;;;;;5071561;28;19939;-58
2023/05/10 10:30:11;;;;;;;;;;;20.00;40.40;;;;;;5089663;28;19920;-58
2023/05/10 10:32:41;;;;;;;;;;;20.00;40.50;;;;;;5089177;28;20205;-58
2023/05/10 10:35:08;;;;;;;;;;;20.00;40.50;;;;;;5091608;28;20172;-57
2023/05/10 10:37:45;;;;;;;;;;;20.00;40.60;;;;;;5089791;28;19960;-56
2023/05/10 10:40:25;;;;;;;;;;;20.00;41.00;;;;;;5089981;28;19971;-57
2023/05/10 10:42:53;;;;;;;;;;;20.00;41.40;;;;;;5071906;28;19924;-57
2023/05/10 10:45:20;;;;;;;;;;;20.00;41.70;;;;;;5072266;28;19959;-58
2023/05/10 10:47:47;;;;;;;;;;;20.00;42.50;;;;;;5089857;28;19927;-59
2023/05/10 10:50:15;;;;;;;;;;;19.90;42.60;;;;;;5072971;28;19997;-58
2023/05/10 10:52:42;;;;;;;;;;;20.00;42.70;;;;;;5091818;28;19924;-58
2023/05/10 10:55:10;;;;;;;;;;;20.00;42.60;;;;;;5089623;28;20211;-58
2023/05/10 10:57:46;;;;;;;;;;;20.00;42.60;;;;;;5095964;28;19959;-58
2023/05/10 11:00:24;;;;;;;;;;;20.00;42.50;;;;;;5084546;28;19952;-58
2023/05/10 11:02:52;;;;;;;;;;;20.00;42.40;;;;;;5058287;28;20011;-58
2023/05/10 11:05:47;;;;;;;;;;;20.00;42.30;;;;;;5070609;28;19928;-58
2023/05/10 11:08:15;;;;;;;;;;;20.00;42.20;;;;;;5092949;28;19924;-58
2023/05/10 11:10:51;;;;;;;;;;;20.00;42.20;;;;;;5077633;28;20357;-58
2023/05/10 11:13:18;;;;;;;;;;;20.00;42.20;;;;;;5072700;28;20274;-58
2023/05/10 11:15:49;;;;;;;;;;;20.00;42.20;;;;;;5084839;28;20170;-58
2023/05/10 11:18:19;;;;;;;;;;;20.00;42.20;;;;;;5071847;28;19977;-57
2023/05/10 11:20:50;;;;;;;;;;;20.00;42.30;;;;;;5091794;28;19924;-57
2023/05/10 11:23:17;;;;;;;;;;;20.00;42.50;;;;;;5071666;28;19924;-59
2023/05/10 11:25:44;;;;;;;;;;;20.00;42.60;;;;;;5084424;28;19920;-58
2023/05/10 11:28:11;;;;;;;;;;;20.00;42.50;;;;;;5072039;28;20036;-58
2023/05/10 11:30:39;;;;;;;;;;;20.00;42.60;;;;;;5072133;28;19931;-58
2023/05/10 11:33:07;;;;;;;;;;;20.00;42.50;;;;;;5090622;28;19927;-58
2023/05/10 11:35:37;;;;;;;;;;;20.00;42.50;;;;;;5068099;28;19973;-57
2023/05/10 11:38:05;;;;;;;;;;;20.00;42.50;;;;;;5075659;28;20023;-58
2023/05/10 11:40:32;;;;;;;;;;;20.00;42.50;;;;;;5088878;28;19920;-57
2023/05/10 11:42:59;;;;;;;;;;;20.00;42.50;;;;;;5090195;28;19985;-58
2023/05/10 11:45:27;;;;;;;;;;;20.00;42.50;;;;;;5088997;28;20045;-59
2023/05/10 11:47:54;;;;;;;;;;;20.00;42.60;;;;;;5074334;28;19974;-59
2023/05/10 11:50:22;;;;;;;;;;;20.00;42.50;;;;;;5089057;28;19954;-58
2023/05/10 11:52:51;;;;;;;;;;;20.00;42.60;;;;;;5093281;28;19927;-57
2023/05/10 11:55:18;;;;;;;;;;;20.00;42.70;;;;;;5088585;28;19993;-58
2023/05/10 11:57:45;;;;;;;;;;;20.10;42.90;;;;;;5087431;28;19924;-56
2023/05/10 12:00:12;;;;;;;;;;;20.10;43.00;;;;;;5088174;28;19932;-56
2023/05/10 12:02:39;;;;;;;;;;;20.10;43.10;;;;;;5089591;28;19924;-59
2023/05/10 12:05:06;;;;;;;;;;;20.10;43.20;;;;;;5093549;28;19985;-57
2023/05/10 12:07:35;;;;;;;;;;;20.10;43.20;;;;;;5091549;28;19970;-58
2023/05/10 12:10:06;;;;;;;;;;;20.10;43.10;;;;;;5070095;28;19935;-58
2023/05/10 12:12:41;;;;;;;;;;;20.10;43.10;;;;;;5093454;28;19927;-57
2023/05/10 12:15:11;;;;;;;;;;;20.10;43.00;;;;;;5093485;28;19931;-57
2023/05/10 12:17:38;;;;;;;;;;;20.10;43.10;;;;;;5086080;28;20317;-57
2023/05/10 12:20:15;;;;;;;;;;;20.10;43.10;;;;;;5086626;28;19924;-57
2023/05/10 12:22:43;;;;;;;;;;;20.10;43.10;;;;;;5089273;28;20018;-55
2023/05/10 12:25:10;;;;;;;;;;;20.10;43.20;;;;;;5071582;28;20308;-58
2023/05/10 12:27:37;;;;;;;;;;;20.10;43.10;;;;;;5083821;28;20386;-58
2023/05/10 12:30:04;;;;;;;;;;;20.10;43.30;;;;;;5087877;28;19974;-58
2023/05/10 12:32:41;;;;;;;;;;;20.20;43.50;;;;;;5087278;28;19931;-56
2023/05/10 12:35:07;;;;;;;;;;;20.20;43.50;;;;;;5093292;28;19924;-58
2023/05/10 12:37:38;;;;;;;;;;;20.20;43.50;;;;;;5090422;28;19986;-56
2023/05/10 12:40:09;;;;;;;;;;;20.20;43.50;;;;;;5089820;28;19924;-57
2023/05/10 12:42:36;;;;;;;;;;;20.20;43.50;;;;;;5070544;28;19949;-55
2023/05/10 12:45:03;;;;;;;;;;;20.20;43.50;;;;;;5070525;28;19920;-56
2023/05/10 12:47:29;;;;;;;;;;;20.20;43.60;;;;;;5087563;28;19924;-56
2023/05/10 12:49:56;;;;;;;;;;;20.20;43.50;;;;;;5089556;28;19924;-58
2023/05/10 12:52:23;;;;;;;;;;;20.20;43.50;;;;;;5072290;28;20151;-59
2023/05/10 12:54:51;;;;;;;;;;;20.20;43.50;;;;;;5056665;28;19926;-57
2023/05/10 12:57:19;;;;;;;;;;;20.20;43.50;;;;;;5089474;28;19942;-57
2023/05/10 12:59:46;;;;;;;;;;;20.20;43.50;;;;;;5093338;28;19985;-57
2023/05/10 13:02:14;;;;;;;;;;;20.20;43.60;;;;;;5054252;28;19919;-59
2023/05/10 13:04:41;;;;;;;;;;;20.20;43.70;;;;;;5072892;28;20409;-58
2023/05/10 13:07:08;;;;;;;;;;;20.20;43.80;;;;;;5072112;28;19931;-58
2023/05/10 13:09:35;;;;;;;;;;;20.20;43.70;;;;;;5088816;28;19924;-59
2023/05/10 13:12:03;;;;;;;;;;;20.20;44.00;;;;;;5074301;28;19920;-57
2023/05/10 13:14:32;;;;;;;;;;;20.20;44.00;;;;;;5071730;28;19920;-59
2023/05/10 13:16:59;;;;;;;;;;;20.20;43.80;;;;;;5096073;28;19924;-57
2023/05/10 13:19:26;;;;;;;;;;;20.20;43.90;;;;;;5088164;28;19923;-56
2023/05/10 13:21:53;;;;;;;;;;;20.20;44.20;;;;;;5091729;28;19932;-58
2023/05/10 13:24:20;;;;;;;;;;;20.20;44.10;;;;;;5090527;28;19920;-56
2023/05/10 13:26:46;;;;;;;;;;;20.20;44.00;;;;;;5089122;28;19936;-57
2023/05/10 13:29:13;;;;;;;;;;;20.20;44.10;;;;;;5071080;28;19931;-58
2023/05/10 13:31:42;;;;;;;;;;;20.20;44.60;;;;;;5091666;28;19920;-59
2023/05/10 13:34:09;;;;;;;;;;;20.20;44.00;;;;;;5074890;28;19928;-58
2023/05/10 13:36:39;;;;;;;;;;;20.20;44.10;;;;;;5084720;28;19920;-59
2023/05/10 13:39:06;;;;;;;;;;;20.20;44.10;;;;;;5094799;28;19932;-59
2023/05/10 13:41:33;;;;;;;;;;;20.30;44.30;;;;;;5059155;28;19924;-56
2023/05/10 13:44:00;;;;;;;;;;;20.20;44.20;;;;;;5078989;28;19939;-57
2023/05/10 13:46:26;;;;;;;;;;;20.30;44.30;;;;;;5091248;28;19924;-56
2023/05/10 13:48:55;;;;;;;;;;;20.30;44.30;;;;;;5073594;28;19920;-57
2023/05/10 13:51:21;;;;;;;;;;;20.30;44.50;;;;;;5074163;28;19939;-58
2023/05/10 13:53:51;;;;;;;;;;;20.30;44.40;;;;;;5072525;28;19969;-58
2023/05/10 13:56:18;;;;;;;;;;;20.30;45.10;;;;;;5088649;28;20015;-56
2023/05/10 13:58:45;;;;;;;;;;;20.30;45.80;;;;;;5072793;28;19921;-58
2023/05/10 14:01:12;;;;;;;;;;;20.30;46.30;;;;;;5070859;28;19924;-57
2023/05/10 14:03:39;;;;;;;;;;;20.30;47.00;;;;;;5094336;28;19924;-56
2023/05/10 14:06:08;;;;;;;;;;;20.30;47.70;;;;;;5090512;28;19927;-56
2023/05/10 14:08:35;;;;;;;;;;;20.30;48.30;;;;;;5072134;28;19920;-58
2023/05/10 14:11:02;;;;;;;;;;;20.30;49.00;;;;;;5083926;28;19954;-58
2023/05/10 14:13:29;;;;;;;;;;;20.30;49.10;;;;;;5095588;28;19946;-58
2023/05/10 14:15:56;;;;;;;;;;;20.30;49.30;;;;;;5091174;28;19925;-59
2023/05/10 14:18:23;;;;;;;;;;;20.30;49.50;;;;;;5087546;28;20329;-59